sensor_id;sensor_type;location;lat;lon;timestamp;P1;durP1;ratioP1;P2;durP2;ratioP2
13435;SDS011;6790;49.520;8.504;2023-06-22T00:00:50;6.60;;;5.93;;
13435;SDS011;6790;49.520;8.504;2023-06-22T00:03:18;6.75;;;5.78;;
13435;SDS011;6790;49.520;8.504;2023-06-22T00:05:45;7.28;;;6.57;;
13435;SDS011;6790;49.520;8.504;2023-06-22T00:08:11;7.78;;;6.38;;
13435;SDS011;6790;49.520;8.504;2023-06-22T00:10:37;7.50;;;6.40;;
13435;SDS011;6790;49.520;8.504;2023-06-22T00:13:03;7.47;;;6.18;;
13435;SDS011;6790;49.520;8.504;2023-06-22T00:15:31;6.43;;;5.82;;
13435;SDS011;6790;49.520;8.504;2023-06-22T00:17:57;8.25;;;6.43;;
13435;SDS011;6790;49.520;8.504;2023-06-22T00:20:23;7.20;;;6.45;;
13435;SDS011;6790;49.520;8.504;2023-06-22T00:22:56;7.53;;;6.10;;
13435;SDS011;6790;49.520;8.504;2023-06-22T00:25:23;8.68;;;6.40;;
13435;SDS011;6790;49.520;8.504;2023-06-22T00:27:49;7.22;;;6.47;;
13435;SDS011;6790;49.520;8.504;2023-06-22T00:30:15;7.07;;;6.47;;
13435;SDS011;6790;49.520;8.504;2023-06-22T00:32:43;7.03;;;6.32;;
13435;SDS011;6790;49.520;8.504;2023-06-22T00:35:09;7.00;;;6.30;;
13435;SDS011;6790;49.520;8.504;2023-06-22T00:37:35;7.05;;;6.18;;
13435;SDS011;6790;49.520;8.504;2023-06-22T00:40:02;8.25;;;6.30;;
13435;SDS011;6790;49.520;8.504;2023-06-22T00:42:29;8.13;;;6.15;;
13435;SDS011;6790;49.520;8.504;2023-06-22T00:44:55;7.57;;;6.63;;
13435;SDS011;6790;49.520;8.504;2023-06-22T00:47:21;9.25;;;7.25;;
13435;SDS011;6790;49.520;8.504;2023-06-22T00:49:47;8.38;;;6.85;;
13435;SDS011;6790;49.520;8.504;2023-06-22T00:52:16;8.25;;;7.40;;
13435;SDS011;6790;49.520;8.504;2023-06-22T00:54:49;11.40;;;7.85;;
13435;SDS011;6790;49.520;8.504;2023-06-22T00:57:16;16.85;;;9.73;;
13435;SDS011;6790;49.520;8.504;2023-06-22T00:59:44;16.50;;;9.65;;
13435;SDS011;6790;49.520;8.504;2023-06-22T01:02:10;11.13;;;9.35;;
13435;SDS011;6790;49.520;8.504;2023-06-22T01:04:37;11.82;;;9.60;;
13435;SDS011;6790;49.520;8.504;2023-06-22T01:12:22;9.93;;;9.02;;
13435;SDS011;6790;49.520;8.504;2023-06-22T01:14:50;9.77;;;8.77;;
13435;SDS011;6790;49.520;8.504;2023-06-22T01:17:25;10.40;;;9.30;;
13435;SDS011;6790;49.520;8.504;2023-06-22T01:19:54;10.95;;;9.65;;
13435;SDS011;6790;49.520;8.504;2023-06-22T01:22:22;10.35;;;9.25;;
13435;SDS011;6790;49.520;8.504;2023-06-22T01:30:49;11.70;;;9.68;;
13435;SDS011;6790;49.520;8.504;2023-06-22T01:33:28;12.25;;;10.40;;
13435;SDS011;6790;49.520;8.504;2023-06-22T01:35:57;12.20;;;10.90;;
13435;SDS011;6790;49.520;8.504;2023-06-22T01:38:25;12.00;;;10.13;;
13435;SDS011;6790;49.520;8.504;2023-06-22T01:40:51;17.55;;;10.75;;
13435;SDS011;6790;49.520;8.504;2023-06-22T01:43:17;15.05;;;11.25;;
13435;SDS011;6790;49.520;8.504;2023-06-22T01:45:43;12.38;;;11.15;;
13435;SDS011;6790;49.520;8.504;2023-06-22T01:48:09;13.48;;;11.45;;
13435;SDS011;6790;49.520;8.504;2023-06-22T01:50:35;11.98;;;10.57;;
13435;SDS011;6790;49.520;8.504;2023-06-22T01:53:01;13.70;;;11.50;;
13435;SDS011;6790;49.520;8.504;2023-06-22T01:55:26;12.80;;;11.43;;
13435;SDS011;6790;49.520;8.504;2023-06-22T01:57:52;12.52;;;10.88;;
13435;SDS011;6790;49.520;8.504;2023-06-22T02:00:21;12.52;;;10.70;;
13435;SDS011;6790;49.520;8.504;2023-06-22T02:03:36;13.40;;;10.98;;
13435;SDS011;6790;49.520;8.504;2023-06-22T02:05:43;12.43;;;11.23;;
13435;SDS011;6790;49.520;8.504;2023-06-22T02:08:19;13.43;;;11.70;;
13435;SDS011;6790;49.520;8.504;2023-06-22T02:10:49;12.75;;;11.43;;
13435;SDS011;6790;49.520;8.504;2023-06-22T02:13:17;14.40;;;12.30;;
13435;SDS011;6790;49.520;8.504;2023-06-22T02:15:43;12.98;;;11.63;;
13435;SDS011;6790;49.520;8.504;2023-06-22T02:18:10;12.73;;;11.20;;
13435;SDS011;6790;49.520;8.504;2023-06-22T02:20:37;13.25;;;11.80;;
13435;SDS011;6790;49.520;8.504;2023-06-22T02:23:03;15.55;;;12.63;;
13435;SDS011;6790;49.520;8.504;2023-06-22T02:25:30;14.07;;;12.43;;
13435;SDS011;6790;49.520;8.504;2023-06-22T02:27:56;14.45;;;12.88;;
13435;SDS011;6790;49.520;8.504;2023-06-22T02:30:22;14.55;;;12.00;;
13435;SDS011;6790;49.520;8.504;2023-06-22T02:32:47;16.38;;;13.23;;
13435;SDS011;6790;49.520;8.504;2023-06-22T02:35:13;15.35;;;13.45;;
13435;SDS011;6790;49.520;8.504;2023-06-22T02:37:39;15.00;;;13.15;;
13435;SDS011;6790;49.520;8.504;2023-06-22T02:40:09;13.93;;;12.43;;
13435;SDS011;6790;49.520;8.504;2023-06-22T02:42:36;14.98;;;12.85;;
13435;SDS011;6790;49.520;8.504;2023-06-22T02:45:02;13.77;;;12.32;;
13435;SDS011;6790;49.520;8.504;2023-06-22T02:47:28;14.65;;;13.02;;
13435;SDS011;6790;49.520;8.504;2023-06-22T02:49:54;14.98;;;12.52;;
13435;SDS011;6790;49.520;8.504;2023-06-22T02:52:19;17.90;;;13.80;;
13435;SDS011;6790;49.520;8.504;2023-06-22T02:54:45;15.88;;;12.77;;
13435;SDS011;6790;49.520;8.504;2023-06-22T02:57:11;15.63;;;13.43;;
13435;SDS011;6790;49.520;8.504;2023-06-22T02:59:38;17.05;;;13.00;;
13435;SDS011;6790;49.520;8.504;2023-06-22T03:02:07;17.13;;;13.93;;
13435;SDS011;6790;49.520;8.504;2023-06-22T03:04:34;15.07;;;13.45;;
13435;SDS011;6790;49.520;8.504;2023-06-22T03:07:00;15.07;;;12.70;;
13435;SDS011;6790;49.520;8.504;2023-06-22T03:09:26;14.77;;;13.05;;
13435;SDS011;6790;49.520;8.504;2023-06-22T03:11:53;14.80;;;13.25;;
13435;SDS011;6790;49.520;8.504;2023-06-22T03:14:20;15.77;;;13.40;;
13435;SDS011;6790;49.520;8.504;2023-06-22T03:16:46;19.25;;;14.43;;
13435;SDS011;6790;49.520;8.504;2023-06-22T03:19:11;15.35;;;12.85;;
13435;SDS011;6790;49.520;8.504;2023-06-22T03:21:37;17.20;;;13.95;;
13435;SDS011;6790;49.520;8.504;2023-06-22T03:24:04;14.68;;;12.88;;
13435;SDS011;6790;49.520;8.504;2023-06-22T03:26:33;15.25;;;13.27;;
13435;SDS011;6790;49.520;8.504;2023-06-22T03:29:00;15.63;;;13.93;;
13435;SDS011;6790;49.520;8.504;2023-06-22T03:31:25;15.32;;;13.52;;
13435;SDS011;6790;49.520;8.504;2023-06-22T03:33:51;16.17;;;13.55;;
13435;SDS011;6790;49.520;8.504;2023-06-22T03:36:17;17.40;;;14.73;;
13435;SDS011;6790;49.520;8.504;2023-06-22T03:38:44;16.75;;;14.23;;
13435;SDS011;6790;49.520;8.504;2023-06-22T03:41:14;15.75;;;13.93;;
13435;SDS011;6790;49.520;8.504;2023-06-22T03:43:40;17.58;;;14.40;;
13435;SDS011;6790;49.520;8.504;2023-06-22T03:46:06;17.17;;;14.18;;
13435;SDS011;6790;49.520;8.504;2023-06-22T03:48:32;16.63;;;14.25;;
13435;SDS011;6790;49.520;8.504;2023-06-22T03:51:01;19.15;;;14.75;;
13435;SDS011;6790;49.520;8.504;2023-06-22T03:53:28;16.25;;;14.38;;
13435;SDS011;6790;49.520;8.504;2023-06-22T03:55:54;15.80;;;13.88;;
13435;SDS011;6790;49.520;8.504;2023-06-22T03:58:20;17.15;;;14.00;;
13435;SDS011;6790;49.520;8.504;2023-06-22T04:00:47;17.63;;;13.98;;
13435;SDS011;6790;49.520;8.504;2023-06-22T04:03:17;16.45;;;14.00;;
13435;SDS011;6790;49.520;8.504;2023-06-22T04:05:44;16.52;;;14.90;;
13435;SDS011;6790;49.520;8.504;2023-06-22T04:08:10;18.92;;;15.00;;
13435;SDS011;6790;49.520;8.504;2023-06-22T04:10:37;16.25;;;14.52;;
13435;SDS011;6790;49.520;8.504;2023-06-22T04:13:03;18.27;;;14.57;;
13435;SDS011;6790;49.520;8.504;2023-06-22T04:15:28;17.38;;;15.38;;
13435;SDS011;6790;49.520;8.504;2023-06-22T04:17:54;17.83;;;14.88;;
13435;SDS011;6790;49.520;8.504;2023-06-22T04:20:21;16.35;;;14.65;;
13435;SDS011;6790;49.520;8.504;2023-06-22T04:22:47;16.92;;;15.13;;
13435;SDS011;6790;49.520;8.504;2023-06-22T04:25:13;16.77;;;15.07;;
13435;SDS011;6790;49.520;8.504;2023-06-22T04:27:39;16.70;;;14.48;;
13435;SDS011;6790;49.520;8.504;2023-06-22T04:30:06;16.75;;;14.95;;
13435;SDS011;6790;49.520;8.504;2023-06-22T04:32:35;18.65;;;15.32;;
13435;SDS011;6790;49.520;8.504;2023-06-22T04:35:01;18.45;;;15.35;;
13435;SDS011;6790;49.520;8.504;2023-06-22T04:37:29;18.08;;;15.27;;
13435;SDS011;6790;49.520;8.504;2023-06-22T04:39:55;16.23;;;14.52;;
13435;SDS011;6790;49.520;8.504;2023-06-22T04:42:21;17.92;;;14.95;;
13435;SDS011;6790;49.520;8.504;2023-06-22T04:44:47;18.88;;;14.70;;
13435;SDS011;6790;49.520;8.504;2023-06-22T04:47:12;16.90;;;13.88;;
13435;SDS011;6790;49.520;8.504;2023-06-22T04:49:38;16.35;;;14.23;;
13435;SDS011;6790;49.520;8.504;2023-06-22T04:52:08;16.77;;;13.82;;
13435;SDS011;6790;49.520;8.504;2023-06-22T04:54:37;18.25;;;16.25;;
13435;SDS011;6790;49.520;8.504;2023-06-22T04:57:06;15.18;;;13.70;;
13435;SDS011;6790;49.520;8.504;2023-06-22T04:59:36;15.00;;;13.55;;
13435;SDS011;6790;49.520;8.504;2023-06-22T05:02:06;14.43;;;12.63;;
13435;SDS011;6790;49.520;8.504;2023-06-22T05:04:32;14.65;;;13.20;;
13435;SDS011;6790;49.520;8.504;2023-06-22T05:07:00;14.13;;;12.73;;
13435;SDS011;6790;49.520;8.504;2023-06-22T05:09:27;16.02;;;13.88;;
13435;SDS011;6790;49.520;8.504;2023-06-22T05:11:54;14.90;;;12.63;;
13435;SDS011;6790;49.520;8.504;2023-06-22T05:14:21;13.82;;;12.30;;
13435;SDS011;6790;49.520;8.504;2023-06-22T05:16:50;18.33;;;14.00;;
13435;SDS011;6790;49.520;8.504;2023-06-22T05:19:19;11.55;;;10.45;;
13435;SDS011;6790;49.520;8.504;2023-06-22T05:21:44;11.23;;;10.13;;
13435;SDS011;6790;49.520;8.504;2023-06-22T05:24:10;11.40;;;10.10;;
13435;SDS011;6790;49.520;8.504;2023-06-22T05:26:36;10.98;;;9.98;;
13435;SDS011;6790;49.520;8.504;2023-06-22T05:29:02;9.93;;;9.02;;
13435;SDS011;6790;49.520;8.504;2023-06-22T05:31:28;9.75;;;8.60;;
13435;SDS011;6790;49.520;8.504;2023-06-22T05:33:55;13.82;;;12.48;;
13435;SDS011;6790;49.520;8.504;2023-06-22T05:36:21;15.35;;;13.75;;
13435;SDS011;6790;49.520;8.504;2023-06-22T05:38:50;21.70;;;15.85;;
13435;SDS011;6790;49.520;8.504;2023-06-22T05:41:21;10.10;;;8.75;;
13435;SDS011;6790;49.520;8.504;2023-06-22T05:43:47;10.25;;;9.25;;
13435;SDS011;6790;49.520;8.504;2023-06-22T05:46:12;11.15;;;9.27;;
13435;SDS011;6790;49.520;8.504;2023-06-22T05:48:38;9.60;;;8.70;;
13435;SDS011;6790;49.520;8.504;2023-06-22T05:51:04;12.02;;;8.75;;
13435;SDS011;6790;49.520;8.504;2023-06-22T05:53:30;10.32;;;8.93;;
13435;SDS011;6790;49.520;8.504;2023-06-22T05:55:56;9.70;;;8.75;;
13435;SDS011;6790;49.520;8.504;2023-06-22T05:58:22;10.02;;;9.00;;
13435;SDS011;6790;49.520;8.504;2023-06-22T06:00:49;9.68;;;8.68;;
13435;SDS011;6790;49.520;8.504;2023-06-22T06:03:15;9.57;;;8.52;;
13435;SDS011;6790;49.520;8.504;2023-06-22T06:05:42;9.80;;;8.90;;
13435;SDS011;6790;49.520;8.504;2023-06-22T06:08:09;9.20;;;8.25;;
13435;SDS011;6790;49.520;8.504;2023-06-22T06:10:36;9.02;;;8.10;;
13435;SDS011;6790;49.520;8.504;2023-06-22T06:13:02;8.45;;;7.57;;
13435;SDS011;6790;49.520;8.504;2023-06-22T06:15:29;9.82;;;8.32;;
13435;SDS011;6790;49.520;8.504;2023-06-22T06:17:55;10.13;;;7.78;;
13435;SDS011;6790;49.520;8.504;2023-06-22T06:20:22;9.52;;;7.20;;
13435;SDS011;6790;49.520;8.504;2023-06-22T06:22:49;8.68;;;7.80;;
13435;SDS011;6790;49.520;8.504;2023-06-22T06:25:15;8.30;;;7.30;;
13435;SDS011;6790;49.520;8.504;2023-06-22T06:27:44;10.38;;;8.20;;
13435;SDS011;6790;49.520;8.504;2023-06-22T06:30:11;7.80;;;7.05;;
13435;SDS011;6790;49.520;8.504;2023-06-22T06:32:39;10.80;;;7.57;;
13435;SDS011;6790;49.520;8.504;2023-06-22T06:35:06;9.15;;;6.85;;
13435;SDS011;6790;49.520;8.504;2023-06-22T06:37:35;9.32;;;7.10;;
13435;SDS011;6790;49.520;8.504;2023-06-22T06:40:04;8.05;;;7.28;;
13435;SDS011;6790;49.520;8.504;2023-06-22T06:42:35;8.35;;;6.93;;
13435;SDS011;6790;49.520;8.504;2023-06-22T06:45:20;8.32;;;6.30;;
13435;SDS011;6790;49.520;8.504;2023-06-22T06:47:50;8.63;;;6.65;;
13435;SDS011;6790;49.520;8.504;2023-06-22T06:50:17;7.38;;;6.55;;
13435;SDS011;6790;49.520;8.504;2023-06-22T06:52:43;10.52;;;6.68;;
13435;SDS011;6790;49.520;8.504;2023-06-22T06:55:08;6.90;;;6.20;;
13435;SDS011;6790;49.520;8.504;2023-06-22T06:57:37;8.88;;;6.80;;
13435;SDS011;6790;49.520;8.504;2023-06-22T07:00:04;6.88;;;6.10;;
13435;SDS011;6790;49.520;8.504;2023-06-22T07:02:34;7.57;;;6.28;;
13435;SDS011;6790;49.520;8.504;2023-06-22T07:05:00;7.03;;;6.43;;
13435;SDS011;6790;49.520;8.504;2023-06-22T07:07:29;7.38;;;6.63;;
13435;SDS011;6790;49.520;8.504;2023-06-22T07:09:55;7.28;;;6.43;;
13435;SDS011;6790;49.520;8.504;2023-06-22T07:12:21;7.22;;;6.10;;
13435;SDS011;6790;49.520;8.504;2023-06-22T07:14:46;6.53;;;5.82;;
13435;SDS011;6790;49.520;8.504;2023-06-22T07:17:12;6.40;;;5.65;;
13435;SDS011;6790;49.520;8.504;2023-06-22T07:19:38;8.45;;;6.63;;
13435;SDS011;6790;49.520;8.504;2023-06-22T07:22:03;6.45;;;5.53;;
13435;SDS011;6790;49.520;8.504;2023-06-22T07:24:29;7.03;;;6.32;;
13435;SDS011;6790;49.520;8.504;2023-06-22T07:26:57;7.22;;;5.68;;
13435;SDS011;6790;49.520;8.504;2023-06-22T07:29:24;12.15;;;6.85;;
13435;SDS011;6790;49.520;8.504;2023-06-22T07:31:51;7.72;;;5.22;;
13435;SDS011;6790;49.520;8.504;2023-06-22T07:34:18;6.78;;;5.75;;
13435;SDS011;6790;49.520;8.504;2023-06-22T07:36:44;6.00;;;5.40;;
13435;SDS011;6790;49.520;8.504;2023-06-22T07:39:11;6.45;;;5.40;;
13435;SDS011;6790;49.520;8.504;2023-06-22T07:41:38;7.82;;;5.85;;
13435;SDS011;6790;49.520;8.504;2023-06-22T07:44:05;6.13;;;5.47;;
13435;SDS011;6790;49.520;8.504;2023-06-22T07:46:32;6.45;;;5.57;;
13435;SDS011;6790;49.520;8.504;2023-06-22T07:48:58;7.38;;;6.00;;
13435;SDS011;6790;49.520;8.504;2023-06-22T07:51:24;5.93;;;5.30;;
13435;SDS011;6790;49.520;8.504;2023-06-22T07:53:50;6.40;;;5.25;;
13435;SDS011;6790;49.520;8.504;2023-06-22T07:56:16;6.88;;;5.35;;
13435;SDS011;6790;49.520;8.504;2023-06-22T07:58:46;6.53;;;5.85;;
13435;SDS011;6790;49.520;8.504;2023-06-22T08:01:12;7.50;;;6.00;;
13435;SDS011;6790;49.520;8.504;2023-06-22T08:03:42;7.47;;;5.55;;
13435;SDS011;6790;49.520;8.504;2023-06-22T08:06:09;6.97;;;5.30;;
13435;SDS011;6790;49.520;8.504;2023-06-22T08:08:35;7.00;;;5.95;;
13435;SDS011;6790;49.520;8.504;2023-06-22T08:11:01;7.57;;;5.80;;
13435;SDS011;6790;49.520;8.504;2023-06-22T08:13:27;6.50;;;5.28;;
13435;SDS011;6790;49.520;8.504;2023-06-22T08:15:53;6.13;;;5.53;;
13435;SDS011;6790;49.520;8.504;2023-06-22T08:18:19;8.57;;;7.15;;
13435;SDS011;6790;49.520;8.504;2023-06-22T08:20:45;6.40;;;5.80;;
13435;SDS011;6790;49.520;8.504;2023-06-22T08:23:11;7.20;;;5.57;;
13435;SDS011;6790;49.520;8.504;2023-06-22T08:25:37;7.05;;;5.38;;
13435;SDS011;6790;49.520;8.504;2023-06-22T08:28:03;8.00;;;5.60;;
13435;SDS011;6790;49.520;8.504;2023-06-22T08:30:29;6.05;;;5.45;;
13435;SDS011;6790;49.520;8.504;2023-06-22T08:32:55;7.10;;;5.07;;
13435;SDS011;6790;49.520;8.504;2023-06-22T08:35:22;5.68;;;5.07;;
13435;SDS011;6790;49.520;8.504;2023-06-22T08:37:48;7.28;;;5.47;;
13435;SDS011;6790;49.520;8.504;2023-06-22T08:40:21;7.40;;;5.47;;
13435;SDS011;6790;49.520;8.504;2023-06-22T08:42:47;6.35;;;5.60;;
13435;SDS011;6790;49.520;8.504;2023-06-22T08:45:14;6.20;;;5.38;;
13435;SDS011;6790;49.520;8.504;2023-06-22T08:47:41;7.65;;;5.72;;
13435;SDS011;6790;49.520;8.504;2023-06-22T08:50:08;6.38;;;5.70;;
13435;SDS011;6790;49.520;8.504;2023-06-22T08:52:35;7.90;;;5.30;;
13435;SDS011;6790;49.520;8.504;2023-06-22T08:55:01;6.00;;;5.40;;
13435;SDS011;6790;49.520;8.504;2023-06-22T08:57:28;5.50;;;5.00;;
13435;SDS011;6790;49.520;8.504;2023-06-22T08:59:55;5.88;;;5.28;;
13435;SDS011;6790;49.520;8.504;2023-06-22T09:02:23;6.28;;;5.10;;
13435;SDS011;6790;49.520;8.504;2023-06-22T09:04:55;5.55;;;4.97;;
13435;SDS011;6790;49.520;8.504;2023-06-22T09:07:22;6.07;;;4.90;;
13435;SDS011;6790;49.520;8.504;2023-06-22T09:09:49;6.30;;;5.10;;
13435;SDS011;6790;49.520;8.504;2023-06-22T09:12:16;7.15;;;5.18;;
13435;SDS011;6790;49.520;8.504;2023-06-22T09:14:44;9.43;;;5.40;;
13435;SDS011;6790;49.520;8.504;2023-06-22T09:17:12;10.77;;;8.10;;
13435;SDS011;6790;49.520;8.504;2023-06-22T09:19:38;7.15;;;5.57;;
13435;SDS011;6790;49.520;8.504;2023-06-22T09:22:04;5.35;;;4.85;;
13435;SDS011;6790;49.520;8.504;2023-06-22T09:24:31;7.05;;;4.97;;
13435;SDS011;6790;49.520;8.504;2023-06-22T09:26:57;7.43;;;5.65;;
13435;SDS011;6790;49.520;8.504;2023-06-22T09:29:23;9.05;;;5.00;;
13435;SDS011;6790;49.520;8.504;2023-06-22T09:31:49;8.52;;;5.38;;
13435;SDS011;6790;49.520;8.504;2023-06-22T09:34:15;7.75;;;4.85;;
13435;SDS011;6790;49.520;8.504;2023-06-22T09:36:45;6.45;;;5.47;;
13435;SDS011;6790;49.520;8.504;2023-06-22T09:39:11;6.28;;;4.90;;
13435;SDS011;6790;49.520;8.504;2023-06-22T09:41:37;7.80;;;4.68;;
13435;SDS011;6790;49.520;8.504;2023-06-22T09:44:02;7.45;;;5.55;;
13435;SDS011;6790;49.520;8.504;2023-06-22T09:46:28;6.85;;;5.20;;
13435;SDS011;6790;49.520;8.504;2023-06-22T09:48:54;5.43;;;4.93;;
13435;SDS011;6790;49.520;8.504;2023-06-22T09:51:20;7.53;;;5.10;;
13435;SDS011;6790;49.520;8.504;2023-06-22T09:53:46;7.82;;;5.03;;
13435;SDS011;6790;49.520;8.504;2023-06-22T09:56:13;7.50;;;5.18;;
13435;SDS011;6790;49.520;8.504;2023-06-22T09:58:42;9.75;;;5.50;;
13435;SDS011;6790;49.520;8.504;2023-06-22T10:01:09;6.63;;;5.20;;
13435;SDS011;6790;49.520;8.504;2023-06-22T10:03:35;8.70;;;5.25;;
13435;SDS011;6790;49.520;8.504;2023-06-22T10:06:01;8.07;;;5.05;;
13435;SDS011;6790;49.520;8.504;2023-06-22T10:08:28;5.13;;;4.63;;
13435;SDS011;6790;49.520;8.504;2023-06-22T10:10:53;7.93;;;5.22;;
13435;SDS011;6790;49.520;8.504;2023-06-22T10:13:19;6.57;;;5.00;;
13435;SDS011;6790;49.520;8.504;2023-06-22T10:15:45;6.70;;;4.90;;
13435;SDS011;6790;49.520;8.504;2023-06-22T10:18:16;5.72;;;5.13;;
13435;SDS011;6790;49.520;8.504;2023-06-22T10:20:43;7.30;;;5.30;;
13435;SDS011;6790;49.520;8.504;2023-06-22T10:23:12;7.70;;;4.90;;
13435;SDS011;6790;49.520;8.504;2023-06-22T10:25:37;6.75;;;5.05;;
13435;SDS011;6790;49.520;8.504;2023-06-22T10:28:03;8.82;;;5.57;;
13435;SDS011;6790;49.520;8.504;2023-06-22T10:30:29;7.95;;;5.40;;
13435;SDS011;6790;49.520;8.504;2023-06-22T10:32:54;9.88;;;5.65;;
13435;SDS011;6790;49.520;8.504;2023-06-22T10:35:20;6.72;;;5.47;;
13435;SDS011;6790;49.520;8.504;2023-06-22T10:37:46;8.27;;;5.28;;
13435;SDS011;6790;49.520;8.504;2023-06-22T10:40:12;9.02;;;5.10;;
13435;SDS011;6790;49.520;8.504;2023-06-22T10:42:40;9.25;;;5.65;;
13435;SDS011;6790;49.520;8.504;2023-06-22T10:45:06;6.50;;;5.03;;
13435;SDS011;6790;49.520;8.504;2023-06-22T10:47:33;10.10;;;5.53;;
13435;SDS011;6790;49.520;8.504;2023-06-22T10:49:59;10.40;;;5.93;;
13435;SDS011;6790;49.520;8.504;2023-06-22T10:52:25;9.13;;;5.43;;
13435;SDS011;6790;49.520;8.504;2023-06-22T10:54:50;7.10;;;5.00;;
13435;SDS011;6790;49.520;8.504;2023-06-22T10:57:17;9.80;;;6.30;;
13435;SDS011;6790;49.520;8.504;2023-06-22T10:59:43;8.13;;;5.30;;
13435;SDS011;6790;49.520;8.504;2023-06-22T11:02:09;7.82;;;5.38;;
13435;SDS011;6790;49.520;8.504;2023-06-22T11:04:34;7.45;;;5.72;;
13435;SDS011;6790;49.520;8.504;2023-06-22T11:07:00;8.93;;;5.88;;
13435;SDS011;6790;49.520;8.504;2023-06-22T11:09:26;7.07;;;5.63;;
13435;SDS011;6790;49.520;8.504;2023-06-22T11:11:52;8.02;;;6.15;;
13435;SDS011;6790;49.520;8.504;2023-06-22T11:14:21;9.15;;;5.82;;
13435;SDS011;6790;49.520;8.504;2023-06-22T11:16:47;8.43;;;5.68;;
13435;SDS011;6790;49.520;8.504;2023-06-22T11:19:13;6.60;;;5.13;;
13435;SDS011;6790;49.520;8.504;2023-06-22T11:21:38;8.38;;;5.63;;
13435;SDS011;6790;49.520;8.504;2023-06-22T11:24:04;11.23;;;5.78;;
13435;SDS011;6790;49.520;8.504;2023-06-22T11:26:30;9.18;;;5.25;;
13435;SDS011;6790;49.520;8.504;2023-06-22T11:28:57;8.52;;;6.07;;
13435;SDS011;6790;49.520;8.504;2023-06-22T11:31:23;9.93;;;5.90;;
13435;SDS011;6790;49.520;8.504;2023-06-22T11:33:49;7.78;;;5.40;;
13435;SDS011;6790;49.520;8.504;2023-06-22T11:36:15;11.77;;;5.97;;
13435;SDS011;6790;49.520;8.504;2023-06-22T11:38:41;10.18;;;5.85;;
13435;SDS011;6790;49.520;8.504;2023-06-22T11:41:08;10.13;;;5.85;;
13435;SDS011;6790;49.520;8.504;2023-06-22T11:43:35;10.98;;;5.70;;
13435;SDS011;6790;49.520;8.504;2023-06-22T11:46:02;9.57;;;5.95;;
13435;SDS011;6790;49.520;8.504;2023-06-22T11:48:29;8.38;;;5.63;;
13435;SDS011;6790;49.520;8.504;2023-06-22T11:50:55;13.73;;;6.07;;
13435;SDS011;6790;49.520;8.504;2023-06-22T11:53:21;10.02;;;5.35;;
13435;SDS011;6790;49.520;8.504;2023-06-22T11:55:50;9.88;;;5.47;;
13435;SDS011;6790;49.520;8.504;2023-06-22T11:58:16;11.90;;;5.60;;
13435;SDS011;6790;49.520;8.504;2023-06-22T12:00:42;12.90;;;5.85;;
13435;SDS011;6790;49.520;8.504;2023-06-22T12:03:08;8.90;;;5.50;;
13435;SDS011;6790;49.520;8.504;2023-06-22T12:05:36;9.20;;;5.25;;
13435;SDS011;6790;49.520;8.504;2023-06-22T12:08:02;10.48;;;5.97;;
13435;SDS011;6790;49.520;8.504;2023-06-22T12:10:30;8.63;;;5.60;;
13435;SDS011;6790;49.520;8.504;2023-06-22T12:12:56;8.65;;;5.43;;
13435;SDS011;6790;49.520;8.504;2023-06-22T12:15:23;6.50;;;5.35;;
13435;SDS011;6790;49.520;8.504;2023-06-22T12:17:49;8.57;;;5.43;;
13435;SDS011;6790;49.520;8.504;2023-06-22T12:20:15;8.30;;;5.78;;
13435;SDS011;6790;49.520;8.504;2023-06-22T12:22:41;7.43;;;5.38;;
13435;SDS011;6790;49.520;8.504;2023-06-22T12:25:07;7.20;;;5.80;;
13435;SDS011;6790;49.520;8.504;2023-06-22T12:27:34;9.23;;;5.40;;
13435;SDS011;6790;49.520;8.504;2023-06-22T12:30:01;9.48;;;5.57;;
13435;SDS011;6790;49.520;8.504;2023-06-22T12:32:27;7.78;;;4.72;;
13435;SDS011;6790;49.520;8.504;2023-06-22T12:34:53;8.88;;;5.55;;
13435;SDS011;6790;49.520;8.504;2023-06-22T12:37:19;10.05;;;5.47;;
13435;SDS011;6790;49.520;8.504;2023-06-22T12:39:44;13.00;;;5.50;;
13435;SDS011;6790;49.520;8.504;2023-06-22T12:42:10;10.10;;;5.35;;
13435;SDS011;6790;49.520;8.504;2023-06-22T12:44:39;11.50;;;5.50;;
13435;SDS011;6790;49.520;8.504;2023-06-22T12:47:06;8.35;;;5.10;;
13435;SDS011;6790;49.520;8.504;2023-06-22T12:49:33;9.10;;;5.38;;
13435;SDS011;6790;49.520;8.504;2023-06-22T12:52:02;7.30;;;5.60;;
13435;SDS011;6790;49.520;8.504;2023-06-22T12:54:33;6.75;;;5.25;;
13435;SDS011;6790;49.520;8.504;2023-06-22T12:56:58;7.38;;;4.93;;
13435;SDS011;6790;49.520;8.504;2023-06-22T12:59:24;9.23;;;5.50;;
13435;SDS011;6790;49.520;8.504;2023-06-22T13:01:50;9.23;;;5.60;;
13435;SDS011;6790;49.520;8.504;2023-06-22T13:04:16;7.70;;;5.65;;
13435;SDS011;6790;49.520;8.504;2023-06-22T13:06:44;11.93;;;6.07;;
13435;SDS011;6790;49.520;8.504;2023-06-22T13:09:14;8.30;;;5.55;;
13435;SDS011;6790;49.520;8.504;2023-06-22T13:11:43;9.98;;;6.15;;
13435;SDS011;6790;49.520;8.504;2023-06-22T13:14:09;10.75;;;5.25;;
13435;SDS011;6790;49.520;8.504;2023-06-22T13:16:35;12.00;;;5.40;;
13435;SDS011;6790;49.520;8.504;2023-06-22T13:19:01;11.00;;;5.50;;
13435;SDS011;6790;49.520;8.504;2023-06-22T13:21:26;7.53;;;4.78;;
13435;SDS011;6790;49.520;8.504;2023-06-22T13:23:52;9.45;;;5.13;;
13435;SDS011;6790;49.520;8.504;2023-06-22T13:26:18;10.40;;;5.20;;
13435;SDS011;6790;49.520;8.504;2023-06-22T13:28:43;9.55;;;5.13;;
13435;SDS011;6790;49.520;8.504;2023-06-22T13:31:09;6.72;;;5.15;;
13435;SDS011;6790;49.520;8.504;2023-06-22T13:33:35;10.48;;;5.25;;
13435;SDS011;6790;49.520;8.504;2023-06-22T13:36:02;7.97;;;5.47;;
13435;SDS011;6790;49.520;8.504;2023-06-22T13:38:28;7.80;;;5.28;;
13435;SDS011;6790;49.520;8.504;2023-06-22T13:40:55;10.40;;;5.43;;
13435;SDS011;6790;49.520;8.504;2023-06-22T13:43:23;6.63;;;4.55;;
13435;SDS011;6790;49.520;8.504;2023-06-22T13:45:49;11.02;;;5.55;;
13435;SDS011;6790;49.520;8.504;2023-06-22T13:48:15;11.75;;;5.85;;
13435;SDS011;6790;49.520;8.504;2023-06-22T13:50:41;11.15;;;5.90;;
13435;SDS011;6790;49.520;8.504;2023-06-22T13:53:06;9.75;;;5.32;;
13435;SDS011;6790;49.520;8.504;2023-06-22T13:55:32;10.60;;;5.22;;
13435;SDS011;6790;49.520;8.504;2023-06-22T13:57:57;10.70;;;5.38;;
13435;SDS011;6790;49.520;8.504;2023-06-22T14:00:23;7.93;;;5.05;;
13435;SDS011;6790;49.520;8.504;2023-06-22T14:02:49;11.52;;;5.78;;
13435;SDS011;6790;49.520;8.504;2023-06-22T14:05:15;10.85;;;5.28;;
13435;SDS011;6790;49.520;8.504;2023-06-22T14:07:41;7.90;;;5.32;;
13435;SDS011;6790;49.520;8.504;2023-06-22T14:10:07;13.65;;;5.60;;
13435;SDS011;6790;49.520;8.504;2023-06-22T14:12:33;8.00;;;5.60;;
13435;SDS011;6790;49.520;8.504;2023-06-22T14:14:59;10.57;;;5.35;;
13435;SDS011;6790;49.520;8.504;2023-06-22T14:17:24;9.98;;;5.78;;
13435;SDS011;6790;49.520;8.504;2023-06-22T14:19:51;11.90;;;5.97;;
13435;SDS011;6790;49.520;8.504;2023-06-22T14:22:18;11.98;;;5.72;;
13435;SDS011;6790;49.520;8.504;2023-06-22T14:24:45;9.80;;;5.68;;
13435;SDS011;6790;49.520;8.504;2023-06-22T14:27:12;8.40;;;6.05;;
13435;SDS011;6790;49.520;8.504;2023-06-22T14:29:37;7.88;;;5.18;;
13435;SDS011;6790;49.520;8.504;2023-06-22T14:32:03;11.40;;;6.07;;
13435;SDS011;6790;49.520;8.504;2023-06-22T14:34:31;8.70;;;5.47;;
13435;SDS011;6790;49.520;8.504;2023-06-22T14:37:04;11.95;;;6.20;;
13435;SDS011;6790;49.520;8.504;2023-06-22T14:39:37;10.68;;;5.72;;
13435;SDS011;6790;49.520;8.504;2023-06-22T14:42:04;9.07;;;6.35;;
13435;SDS011;6790;49.520;8.504;2023-06-22T14:44:30;9.82;;;6.80;;
13435;SDS011;6790;49.520;8.504;2023-06-22T14:46:57;8.18;;;5.88;;
13435;SDS011;6790;49.520;8.504;2023-06-22T14:49:23;11.55;;;6.53;;
13435;SDS011;6790;49.520;8.504;2023-06-22T14:51:49;10.60;;;5.97;;
13435;SDS011;6790;49.520;8.504;2023-06-22T14:54:15;9.30;;;6.13;;
13435;SDS011;6790;49.520;8.504;2023-06-22T14:56:40;16.02;;;6.15;;
13435;SDS011;6790;49.520;8.504;2023-06-22T14:59:06;13.73;;;6.10;;